Time;durP1;ratioP1;P1;durP2;ratioP2;P2;SDS_P1;SDS_P2;PMS_P1;PMS_P2;Temp;Humidity;BMP_temperature;BMP_pressure;BME280_temperature;BME280_humidity;BME280_pressure;Samples;Min_cycle;Max_cycle;Signal;HPM_P1;HPM_P2
2023/03/26 00:01:18;;;;;;;12.00;6.18;;;4.40;99.90;;;;;;4843891;29;20049;-66
2023/03/26 00:03:45;;;;;;;10.70;5.95;;;4.50;99.90;;;;;;4844535;29;20798;-64
2023/03/26 00:06:16;;;;;;;10.60;6.43;;;4.40;99.90;;;;;;4846113;29;20046;-65
2023/03/26 00:08:44;;;;;;;12.63;7.85;;;4.40;99.90;;;;;;4841161;29;20057;-67
2023/03/26 00:11:14;;;;;;;16.35;6.75;;;4.40;99.90;;;;;;4839345;29;20153;-63
2023/03/26 00:13:44;;;;;;;11.98;7.07;;;4.40;99.90;;;;;;4841447;29;20081;-67
2023/03/26 00:16:13;;;;;;;11.52;7.30;;;4.40;99.90;;;;;;4847764;29;20496;-69
2023/03/26 00:18:41;;;;;;;12.98;6.93;;;4.40;99.90;;;;;;4845518;29;20157;-67
2023/03/26 00:21:14;;;;;;;13.82;6.53;;;4.40;99.90;;;;;;4836537;29;20134;-67
2023/03/26 00:23:42;;;;;;;9.23;5.28;;;4.40;99.90;;;;;;4842861;29;20049;-70
2023/03/26 00:26:09;;;;;;;9.43;5.90;;;4.40;99.90;;;;;;4839626;29;20042;-63
2023/03/26 00:28:39;;;;;;;9.40;7.35;;;4.40;99.90;;;;;;4845726;29;20049;-66
2023/03/26 00:31:13;;;;;;;13.02;6.00;;;4.40;99.90;;;;;;4843203;29;20137;-67
2023/03/26 00:33:41;;;;;;;10.27;6.45;;;4.40;99.90;;;;;;4839791;29;20559;-64
2023/03/26 00:36:14;;;;;;;10.93;5.25;;;4.40;99.90;;;;;;4855624;29;20132;-66
2023/03/26 00:38:41;;;;;;;11.13;6.15;;;4.40;99.90;;;;;;4845155;29;20041;-67
2023/03/26 00:41:21;;;;;;;11.75;6.18;;;4.40;99.90;;;;;;4843438;29;20062;-68
2023/03/26 00:43:52;;;;;;;10.50;5.68;;;4.40;99.90;;;;;;4841946;29;20148;-64
2023/03/26 00:46:19;;;;;;;11.93;6.13;;;4.30;99.90;;;;;;4848695;29;20085;-71
2023/03/26 00:48:46;;;;;;;13.18;6.65;;;4.30;99.90;;;;;;4854203;29;20102;-67
2023/03/26 00:51:15;;;;;;;10.23;6.18;;;4.20;99.90;;;;;;4865370;29;20077;-63
2023/03/26 00:53:44;;;;;;;11.82;6.13;;;4.20;99.90;;;;;;4849440;29;20042;-68
2023/03/26 00:56:11;;;;;;;12.75;6.10;;;4.10;99.90;;;;;;4855442;29;20591;-70
2023/03/26 00:58:38;;;;;;;8.32;5.25;;;4.10;99.90;;;;;;4849449;29;20045;-68
2023/03/26 01:01:08;;;;;;;6.95;4.90;;;4.10;99.90;;;;;;4849241;29;20053;-67
2023/03/26 01:03:37;;;;;;;9.20;5.93;;;4.00;99.90;;;;;;4850984;29;20066;-63
2023/03/26 01:06:07;;;;;;;10.40;6.38;;;4.00;99.90;;;;;;4868003;29;20064;-65
2023/03/26 01:08:40;;;;;;;9.73;6.15;;;4.00;99.90;;;;;;4848096;29;20046;-64
2023/03/26 01:11:20;;;;;;;7.53;4.90;;;3.90;99.90;;;;;;4839991;29;20068;-70
2023/03/26 01:13:54;;;;;;;6.35;4.72;;;3.90;99.90;;;;;;4851261;29;20050;-64
2023/03/26 01:16:30;;;;;;;6.55;5.68;;;3.80;99.90;;;;;;4852483;29;20264;-68
2023/03/26 01:18:59;;;;;;;9.02;5.13;;;3.80;99.90;;;;;;4851023;29;20348;-66
2023/03/26 01:21:29;;;;;;;8.02;4.60;;;3.70;99.90;;;;;;4852671;29;20498;-63
2023/03/26 01:24:04;;;;;;;6.57;5.07;;;3.70;99.90;;;;;;4847960;29;20073;-70
2023/03/26 01:26:43;;;;;;;6.63;4.85;;;3.70;99.90;;;;;;4851889;29;20316;-64
2023/03/26 01:29:19;;;;;;;6.85;4.75;;;3.70;99.90;;;;;;4842578;29;20067;-69
2023/03/26 01:32:08;;;;;;;5.68;4.93;;;3.60;99.90;;;;;;4843307;29;20045;-64
2023/03/26 01:34:59;;;;;;;7.15;4.68;;;3.60;99.90;;;;;;4851588;29;20052;-67
2023/03/26 01:38:00;;;;;;;9.77;5.38;;;3.50;99.90;;;;;;4846898;29;20115;-65
2023/03/26 01:40:41;;;;;;;7.22;4.75;;;3.50;99.90;;;;;;4849745;29;20309;-64
2023/03/26 01:43:44;;;;;;;7.20;5.25;;;3.40;99.90;;;;;;4847458;29;20085;-65
2023/03/26 01:46:14;;;;;;;7.57;5.90;;;3.40;99.90;;;;;;4848850;29;20242;-63
2023/03/26 01:48:44;;;;;;;7.93;6.22;;;3.40;99.90;;;;;;4846016;29;20053;-69
2023/03/26 01:51:12;;;;;;;9.73;7.20;;;3.40;99.90;;;;;;4846769;29;20484;-71
2023/03/26 01:53:46;;;;;;;7.80;5.60;;;3.40;99.90;;;;;;4850707;29;20057;-64
2023/03/26 01:56:52;;;;;;;7.10;5.75;;;3.40;99.90;;;;;;4850457;29;20959;-71
2023/03/26 01:59:41;;;;;;;8.68;5.93;;;3.30;99.90;;;;;;4843035;29;20746;-71
2023/03/26 02:02:48;;;;;;;8.52;6.25;;;3.30;99.90;;;;;;4846109;29;20200;-66
2023/03/26 02:05:32;;;;;;;9.35;6.70;;;3.40;99.90;;;;;;4834385;29;20129;-70
2023/03/26 02:08:12;;;;;;;8.20;5.95;;;3.40;99.90;;;;;;4846939;29;20152;-69
2023/03/26 02:10:43;;;;;;;6.78;4.68;;;3.40;99.90;;;;;;4844630;29;20069;-70
2023/03/26 02:13:11;;;;;;;9.35;4.53;;;3.40;99.90;;;;;;4837490;29;20910;-64
2023/03/26 02:15:39;;;;;;;8.13;6.55;;;3.40;99.90;;;;;;4843895;29;20282;-66
2023/03/26 02:18:09;;;;;;;6.15;4.90;;;3.40;99.90;;;;;;4847634;29;20340;-66
2023/03/26 02:20:36;;;;;;;8.23;5.65;;;3.30;99.90;;;;;;4856682;29;20046;-67
2023/03/26 02:23:04;;;;;;;6.40;5.13;;;3.30;99.90;;;;;;4839164;29;20061;-67
2023/03/26 02:25:34;;;;;;;6.53;4.57;;;3.30;99.90;;;;;;4845993;29;20399;-65
2023/03/26 02:28:01;;;;;;;9.30;5.90;;;3.30;99.90;;;;;;4859840;29;20046;-70
2023/03/26 02:30:28;;;;;;;7.05;5.15;;;3.30;99.90;;;;;;4845292;29;20293;-66
2023/03/26 02:32:58;;;;;;;10.98;6.03;;;3.30;99.90;;;;;;4859988;29;20498;-65
2023/03/26 02:35:33;;;;;;;10.75;6.40;;;3.20;99.90;;;;;;4845137;29;20106;-68
2023/03/26 02:38:01;;;;;;;5.65;4.78;;;3.20;99.90;;;;;;4845538;29;20678;-68
2023/03/26 02:40:28;;;;;;;6.38;4.95;;;3.20;99.90;;;;;;4849251;29;20145;-72
2023/03/26 02:42:57;;;;;;;8.00;5.45;;;3.20;99.90;;;;;;4844484;29;20053;-63
2023/03/26 02:45:24;;;;;;;11.95;4.63;;;3.20;99.90;;;;;;4843648;29;20050;-62
2023/03/26 02:48:12;;;;;;;7.50;5.43;;;3.10;99.90;;;;;;4845770;29;20129;-66
2023/03/26 02:50:48;;;;;;;7.53;5.25;;;3.10;99.90;;;;;;4850473;29;20109;-66
2023/03/26 02:53:22;;;;;;;9.55;6.38;;;3.10;99.90;;;;;;4846746;29;20053;-70
2023/03/26 02:55:57;;;;;;;9.13;4.57;;;3.00;99.90;;;;;;4850498;29;20085;-66
2023/03/26 02:58:28;;;;;;;9.55;5.00;;;3.00;99.90;;;;;;4863011;29;20061;-63
2023/03/26 03:00:56;;;;;;;8.70;4.68;;;3.00;99.90;;;;;;4855678;29;20058;-66
2023/03/26 03:03:28;;;;;;;6.43;5.07;;;3.00;99.90;;;;;;4860323;29;20049;-63
2023/03/26 03:05:58;;;;;;;5.72;5.10;;;3.00;99.90;;;;;;4846647;29;20050;-64
2023/03/26 03:08:30;;;;;;;9.05;5.13;;;2.90;99.90;;;;;;4845354;29;20772;-67
2023/03/26 03:11:20;;;;;;;8.98;5.68;;;2.90;99.90;;;;;;4846714;29;20264;-67
2023/03/26 03:13:50;;;;;;;8.10;6.15;;;2.90;99.90;;;;;;4861907;29;20045;-68
2023/03/26 03:16:21;;;;;;;8.23;5.30;;;2.90;99.90;;;;;;4856733;29;20128;-67
2023/03/26 03:18:53;;;;;;;7.75;5.72;;;3.00;99.90;;;;;;4863930;29;20061;-67
2023/03/26 03:21:22;;;;;;;8.30;5.68;;;3.00;99.90;;;;;;4846100;29;20061;-64
2023/03/26 03:23:50;;;;;;;9.50;6.25;;;3.00;99.90;;;;;;4850098;29;20132;-65
2023/03/26 03:26:20;;;;;;;9.30;6.47;;;2.90;99.90;;;;;;4847608;29;20130;-63
2023/03/26 03:28:53;;;;;;;9.18;5.82;;;2.90;99.90;;;;;;4860221;29;20053;-67
2023/03/26 03:31:20;;;;;;;9.60;7.20;;;2.90;99.90;;;;;;4849943;29;20056;-67
2023/03/26 03:33:47;;;;;;;12.68;6.22;;;2.90;99.90;;;;;;4846947;29;20077;-70
2023/03/26 03:36:17;;;;;;;14.20;6.05;;;2.90;99.90;;;;;;4845774;29;20053;-63
2023/03/26 03:38:55;;;;;;;11.50;5.90;;;2.80;99.90;;;;;;4849150;29;20049;-64
2023/03/26 03:41:22;;;;;;;8.25;5.13;;;2.80;99.90;;;;;;4844427;29;20041;-71
2023/03/26 03:43:50;;;;;;;10.00;6.05;;;2.80;99.90;;;;;;4850132;29;20895;-67
2023/03/26 03:46:23;;;;;;;8.43;5.45;;;2.80;99.90;;;;;;4848003;29;20102;-68
2023/03/26 03:48:51;;;;;;;9.65;6.35;;;2.80;99.90;;;;;;4855768;29;20133;-65
2023/03/26 03:51:25;;;;;;;10.68;6.00;;;2.80;99.90;;;;;;4845956;29;20492;-69
2023/03/26 03:53:56;;;;;;;8.35;6.00;;;2.70;99.90;;;;;;4859857;29;20531;-68
2023/03/26 03:56:44;;;;;;;9.07;5.75;;;2.70;99.90;;;;;;4846335;29;20039;-69
2023/03/26 03:59:14;;;;;;;10.60;6.20;;;2.70;99.90;;;;;;4842871;29;20050;-64
2023/03/26 04:01:42;;;;;;;9.35;5.82;;;2.70;99.90;;;;;;4844664;29;20069;-63
2023/03/26 04:04:16;;;;;;;6.88;5.95;;;2.60;99.90;;;;;;4843603;29;20049;-71
2023/03/26 04:06:53;;;;;;;7.72;6.15;;;2.70;99.90;;;;;;4845028;29;20135;-67
2023/03/26 04:09:21;;;;;;;6.88;5.22;;;2.70;99.90;;;;;;4857687;29;20052;-72
2023/03/26 04:11:49;;;;;;;7.43;5.88;;;2.60;99.90;;;;;;4849089;29;20053;-70
2023/03/26 04:14:39;;;;;;;;;;;2.70;99.90;;;;;;4845513;29;20094;-64
2023/03/26 04:17:20;;;;;;;10.13;5.15;;;2.60;99.90;;;;;;4857998;29;19924;-67
2023/03/26 04:19:49;;;;;;;9.20;5.07;;;2.60;99.90;;;;;;4841471;29;20056;-68
2023/03/26 04:22:18;;;;;;;12.57;5.65;;;2.60;99.90;;;;;;4843798;29;20061;-65
2023/03/26 04:24:53;;;;;;;8.80;5.05;;;2.50;99.90;;;;;;4856691;29;20049;-67
2023/03/26 04:27:36;;;;;;;7.50;4.93;;;2.50;99.90;;;;;;4858561;29;20052;-63
2023/03/26 04:30:19;;;;;;;11.10;5.57;;;2.50;99.90;;;;;;4858560;29;20059;-65
2023/03/26 04:32:53;;;;;;;15.52;6.85;;;2.50;99.90;;;;;;4844387;29;20783;-68
2023/03/26 04:35:20;;;;;;;16.23;7.00;;;2.50;99.90;;;;;;4856617;29;20038;-71
2023/03/26 04:37:53;;;;;;;14.35;6.57;;;2.50;99.90;;;;;;4843233;29;20049;-65
2023/03/26 04:40:34;;;;;;;13.13;7.40;;;2.50;99.90;;;;;;4844901;29;20057;-64
2023/03/26 04:43:03;;;;;;;11.27;5.43;;;2.50;99.90;;;;;;4843469;29;20635;-66
2023/03/26 04:46:02;;;;;;;8.75;6.57;;;2.50;99.90;;;;;;4834977;29;20082;-62
2023/03/26 04:48:33;;;;;;;12.43;7.28;;;2.50;99.90;;;;;;4846635;29;20127;-65
2023/03/26 04:51:00;;;;;;;12.63;5.75;;;2.50;99.90;;;;;;4845737;29;20053;-67
2023/03/26 04:53:27;;;;;;;9.05;6.82;;;2.50;99.90;;;;;;4856264;29;20066;-65
2023/03/26 04:56:27;;;;;;;8.98;5.45;;;2.50;99.90;;;;;;4845687;29;20052;-67
2023/03/26 04:59:33;;;;;;;7.78;4.45;;;2.50;99.90;;;;;;4835345;29;20041;-66
2023/03/26 05:02:04;;;;;;;8.35;6.22;;;2.40;99.90;;;;;;4844004;29;20057;-64
2023/03/26 05:04:42;;;;;;;10.55;7.20;;;2.40;99.90;;;;;;4849449;29;20483;-68
2023/03/26 05:07:11;;;;;;;8.02;6.60;;;2.40;99.90;;;;;;4844582;29;20083;-73
2023/03/26 05:09:46;;;;;;;8.68;5.25;;;2.40;99.90;;;;;;4847929;29;20180;-64
2023/03/26 05:12:21;;;;;;;10.07;5.40;;;2.40;99.90;;;;;;4854881;29;20471;-65
2023/03/26 05:14:56;;;;;;;7.88;5.38;;;2.40;99.90;;;;;;4846424;29;20042;-65
2023/03/26 05:17:47;;;;;;;12.35;6.05;;;2.30;99.90;;;;;;4837748;29;20042;-65
2023/03/26 05:20:37;;;;;;;;;;;2.40;99.90;;;;;;4844652;29;20049;-65
2023/03/26 05:23:06;;;;;;;7.78;5.03;;;2.40;99.90;;;;;;4842723;29;20363;-66
2023/03/26 05:25:56;;;;;;;9.63;4.85;;;2.40;99.90;;;;;;4844044;29;20045;-65
2023/03/26 05:28:25;;;;;;;8.45;5.60;;;2.30;99.90;;;;;;4845420;29;20050;-70
2023/03/26 05:31:00;;;;;;;7.45;5.72;;;2.30;99.90;;;;;;4854419;29;20053;-64
2023/03/26 05:33:30;;;;;;;7.65;5.00;;;2.30;99.90;;;;;;4856262;29;20053;-66
2023/03/26 05:36:06;;;;;;;6.43;5.38;;;2.30;99.90;;;;;;4848624;29;20059;-67
2023/03/26 05:38:33;;;;;;;7.65;5.65;;;2.30;99.90;;;;;;4861003;29;20070;-68
2023/03/26 05:41:05;;;;;;;5.75;4.97;;;2.30;99.90;;;;;;4844879;29;20058;-67
2023/03/26 05:43:33;;;;;;;6.07;4.75;;;2.30;99.90;;;;;;4848176;29;20045;-65
2023/03/26 05:46:20;;;;;;;7.40;5.05;;;2.30;99.90;;;;;;4849326;29;20053;-67
2023/03/26 05:48:48;;;;;;;8.07;5.32;;;2.30;99.90;;;;;;4847562;29;20168;-70
2023/03/26 05:51:15;;;;;;;12.15;5.97;;;2.30;99.90;;;;;;4850475;29;20056;-65
2023/03/26 05:53:49;;;;;;;6.82;4.90;;;2.30;99.90;;;;;;4848596;29;20053;-67
2023/03/26 05:56:42;;;;;;;5.75;4.13;;;2.30;99.90;;;;;;4846216;29;20581;-63
2023/03/26 05:59:27;;;;;;;7.47;4.25;;;2.30;99.90;;;;;;4846229;29;20076;-65
2023/03/26 06:02:13;;;;;;;6.57;4.03;;;2.30;99.90;;;;;;4851330;29;20757;-64
2023/03/26 06:05:04;;;;;;;4.55;4.03;;;2.30;99.90;;;;;;4848005;29;20042;-67
2023/03/26 06:07:46;;;;;;;5.35;3.88;;;2.30;99.90;;;;;;4847722;29;20049;-69
2023/03/26 06:10:17;;;;;;;15.57;4.47;;;2.30;99.90;;;;;;4847079;29;20049;-68
2023/03/26 06:12:45;;;;;;;9.25;4.00;;;2.30;99.90;;;;;;4842125;29;20048;-70
2023/03/26 06:15:12;;;;;;;6.63;3.58;;;2.30;99.90;;;;;;4840209;29;20140;-62
2023/03/26 06:17:47;;;;;;;6.13;4.47;;;2.30;99.90;;;;;;4865773;29;20136;-68
2023/03/26 06:20:33;;;;;;;4.78;3.40;;;2.30;99.90;;;;;;4848984;29;20056;-62
2023/03/26 06:23:05;;;;;;;5.18;4.10;;;2.30;99.90;;;;;;4840957;29;20065;-69
2023/03/26 06:26:01;;;;;;;6.28;3.72;;;2.30;99.90;;;;;;4849289;29;20056;-63
2023/03/26 06:28:46;;;;;;;4.30;3.25;;;2.30;99.90;;;;;;4844924;29;20089;-64
2023/03/26 06:31:32;;;;;;;4.55;4.15;;;2.30;99.90;;;;;;4845661;29;20051;-64
2023/03/26 06:34:18;;;;;;;5.68;5.10;;;2.30;99.90;;;;;;4847076;29;20153;-64
2023/03/26 06:36:47;;;;;;;3.45;3.15;;;2.20;99.90;;;;;;4846552;29;20053;-69
2023/03/26 06:39:14;;;;;;;2.73;2.53;;;2.20;99.90;;;;;;4839383;29;20049;-67
2023/03/26 06:41:52;;;;;;;5.53;3.40;;;2.20;99.90;;;;;;4869441;29;20037;-68
2023/03/26 06:44:33;;;;;;;3.92;3.53;;;2.10;99.90;;;;;;4847815;29;20413;-68
2023/03/26 06:47:19;;;;;;;5.55;3.85;;;2.10;99.90;;;;;;4850869;29;20084;-67
2023/03/26 06:49:48;;;;;;;4.65;3.25;;;2.10;99.90;;;;;;4844845;29;20053;-69
2023/03/26 06:52:34;;;;;;;6.35;3.75;;;2.10;99.90;;;;;;4848393;29;20052;-70
2023/03/26 06:55:23;;;;;;;3.83;3.22;;;2.10;99.90;;;;;;4846693;29;20049;-67
2023/03/26 06:58:11;;;;;;;3.30;3.00;;;2.10;99.90;;;;;;4843624;29;20057;-69
2023/03/26 07:01:05;;;;;;;6.70;2.97;;;2.10;99.90;;;;;;4821293;29;20045;-67
2023/03/26 07:03:50;;;;;;;3.90;3.17;;;2.10;99.90;;;;;;4848616;29;20061;-64
2023/03/26 07:06:35;;;;;;;4.95;2.78;;;2.10;99.90;;;;;;4850713;29;20060;-67
2023/03/26 07:09:21;;;;;;;3.78;3.45;;;2.10;99.90;;;;;;4845251;29;20237;-74
2023/03/26 07:12:06;;;;;;;4.78;3.95;;;2.10;99.90;;;;;;4849952;29;20052;-65
2023/03/26 07:14:52;;;;;;;3.92;3.17;;;2.10;99.90;;;;;;4846965;29;20136;-74
2023/03/26 07:17:55;;;;;;;5.28;4.45;;;2.10;99.90;;;;;;4794279;29;20687;-65
2023/03/26 07:20:26;;;;;;;4.82;3.70;;;2.10;99.90;;;;;;4836778;29;20054;-67
2023/03/26 07:22:53;;;;;;;4.18;3.78;;;2.10;99.90;;;;;;4844309;29;20105;-65
2023/03/26 07:25:56;;;;;;;4.82;3.88;;;2.10;99.90;;;;;;4836863;29;20049;-67
2023/03/26 07:28:51;;;;;;;3.72;2.85;;;2.10;99.90;;;;;;4849688;29;20240;-70
2023/03/26 07:32:08;;;;;;;3.42;3.13;;;2.10;99.90;;;;;;4856546;29;20858;-68
2023/03/26 07:35:01;;;;;;;4.30;3.28;;;2.20;99.90;;;;;;4848246;29;20052;-66
2023/03/26 07:38:09;;;;;;;4.25;3.85;;;2.20;99.90;;;;;;4836808;29;20050;-70
2023/03/26 07:41:27;;;;;;;4.15;3.75;;;2.30;99.90;;;;;;4846211;29;21326;-68
2023/03/26 07:44:21;;;;;;;4.68;3.60;;;2.30;99.90;;;;;;4845513;29;20209;-63
2023/03/26 07:47:27;;;;;;;6.85;2.70;;;2.30;99.90;;;;;;4857113;29;20061;-75
2023/03/26 07:50:22;;;;;;;3.17;2.83;;;2.20;99.90;;;;;;4818643;29;20053;-70
2023/03/26 07:52:58;;;;;;;4.20;3.25;;;2.20;99.90;;;;;;4847872;29;20053;-64
2023/03/26 07:55:30;;;;;;;3.75;2.63;;;2.10;99.90;;;;;;4865953;29;20148;-67
2023/03/26 07:58:38;;;;;;;4.15;2.75;;;2.20;99.90;;;;;;4849491;29;20713;-70
2023/03/26 08:01:55;;;;;;;2.58;2.30;;;2.20;99.90;;;;;;4857694;29;20037;-69
2023/03/26 08:05:18;;;;;;;4.00;2.40;;;2.30;99.90;;;;;;4844411;29;20114;-69
2023/03/26 08:08:19;;;;;;;2.35;2.15;;;2.30;99.90;;;;;;4842114;29;20052;-67
2023/03/26 08:11:27;;;;;;;2.15;1.95;;;2.40;99.90;;;;;;4843446;29;20482;-69
2023/03/26 08:14:07;;;;;;;2.20;2.00;;;2.40;99.90;;;;;;4861057;29;20045;-68
2023/03/26 08:16:40;;;;;;;2.13;1.80;;;2.40;99.90;;;;;;4850882;29;20117;-76
2023/03/26 08:19:33;;;;;;;2.60;2.08;;;2.40;99.90;;;;;;4842549;29;20053;-72
2023/03/26 08:22:19;;;;;;;1.90;1.70;;;2.40;99.90;;;;;;4843657;29;20135;-68
2023/03/26 08:24:58;;;;;;;2.47;1.90;;;2.40;99.90;;;;;;4845527;29;20058;-71
2023/03/26 08:27:40;;;;;;;2.67;2.03;;;2.40;99.90;;;;;;4843099;29;20056;-65
2023/03/26 08:30:16;;;;;;;2.42;2.08;;;2.40;99.90;;;;;;4844133;29;20895;-63
2023/03/26 08:32:55;;;;;;;2.53;2.33;;;2.40;99.90;;;;;;4847853;29;20042;-67
2023/03/26 08:35:23;;;;;;;5.13;2.53;;;2.40;99.90;;;;;;4846757;29;20141;-63
2023/03/26 08:37:51;;;;;;;4.25;2.97;;;2.50;99.90;;;;;;4848027;29;20082;-68
2023/03/26 08:40:47;;;;;;;4.85;3.50;;;2.50;99.90;;;;;;4842385;29;20042;-64
2023/03/26 08:43:36;;;;;;;5.45;3.53;;;2.40;99.90;;;;;;4842950;29;20129;-70
2023/03/26 08:46:41;;;;;;;3.42;3.13;;;2.40;99.90;;;;;;4847307;29;20052;-68
2023/03/26 08:49:34;;;;;;;3.75;3.40;;;2.40;99.90;;;;;;4839963;29;20331;-65
2023/03/26 08:52:20;;;;;;;7.68;3.42;;;2.40;99.90;;;;;;4844308;29;20124;-68
2023/03/26 08:54:47;;;;;;;3.80;3.40;;;2.50;99.90;;;;;;4847750;29;20410;-65
2023/03/26 08:57:32;;;;;;;7.10;5.53;;;2.50;99.90;;;;;;4843465;29;20520;-76
2023/03/26 09:00:25;;;;;;;5.22;3.30;;;2.60;99.90;;;;;;4848085;29;20060;-67
2023/03/26 09:03:10;;;;;;;4.82;3.25;;;2.60;99.90;;;;;;4847546;29;20160;-69
2023/03/26 09:05:58;;;;;;;10.23;5.30;;;2.60;99.90;;;;;;4849086;29;20049;-65
2023/03/26 09:08:44;;;;;;;5.05;4.55;;;2.60;99.90;;;;;;4850134;29;20085;-66
2023/03/26 09:11:32;;;;;;;4.95;4.35;;;2.60;99.90;;;;;;4850833;29;20046;-71
2023/03/26 09:14:05;;;;;;;6.65;4.22;;;2.80;99.90;;;;;;4847589;29;20049;-62
2023/03/26 09:16:54;;;;;;;5.80;3.95;;;2.80;99.90;;;;;;4846890;29;20072;-67
2023/03/26 09:19:20;;;;;;;4.07;3.67;;;2.70;99.90;;;;;;4849399;29;20045;-65
2023/03/26 09:22:29;;;;;;;4.13;3.53;;;2.60;99.90;;;;;;4849593;29;20767;-66
2023/03/26 09:25:26;;;;;;;4.75;4.28;;;2.70;99.90;;;;;;4844993;29;20066;-67
2023/03/26 09:28:04;;;;;;;4.30;2.97;;;2.70;99.90;;;;;;4850942;29;20049;-68
2023/03/26 09:30:58;;;;;;;5.57;4.78;;;2.90;99.90;;;;;;4847129;29;20050;-62
2023/03/26 09:33:55;;;;;;;6.35;3.70;;;2.90;99.90;;;;;;4851363;29;20443;-65
2023/03/26 09:36:38;;;;;;;4.80;3.75;;;2.80;99.90;;;;;;4850004;29;20056;-68
2023/03/26 09:39:38;;;;;;;5.00;3.65;;;2.80;99.90;;;;;;4842612;29;20063;-65
2023/03/26 09:42:16;;;;;;;5.60;3.55;;;2.80;99.90;;;;;;4849917;29;20681;-66
2023/03/26 09:44:46;;;;;;;5.38;4.10;;;2.70;99.90;;;;;;4846540;29;20119;-63
2023/03/26 09:47:45;;;;;;;5.57;4.28;;;2.70;99.90;;;;;;4848370;29;20557;-64
2023/03/26 09:50:33;;;;;;;4.83;4.27;;;2.60;99.90;;;;;;4849874;29;20053;-67
2023/03/26 09:53:15;;;;;;;4.63;3.53;;;2.60;99.90;;;;;;4858497;29;20319;-64
2023/03/26 09:55:58;;;;;;;6.05;4.35;;;2.60;99.90;;;;;;4847938;29;20038;-66
2023/03/26 09:58:40;;;;;;;4.63;3.80;;;2.50;99.90;;;;;;4848889;29;20041;-64
2023/03/26 10:01:19;;;;;;;5.88;4.00;;;2.50;99.90;;;;;;4848967;29;20053;-64
2023/03/26 10:04:14;;;;;;;7.45;4.60;;;2.50;99.90;;;;;;4850003;29;20056;-65
2023/03/26 10:06:47;;;;;;;6.53;5.00;;;2.50;99.90;;;;;;4850322;29;20492;-65
2023/03/26 10:09:26;;;;;;;5.15;4.18;;;2.50;99.90;;;;;;4845914;29;20053;-66
2023/03/26 10:12:11;;;;;;;4.97;4.07;;;2.40;99.90;;;;;;4846016;29;20058;-66
2023/03/26 10:14:44;;;;;;;5.63;4.63;;;2.30;99.90;;;;;;4849251;29;20045;-63
2023/03/26 10:17:39;;;;;;;7.35;4.15;;;2.30;99.90;;;;;;4848497;29;21039;-68
2023/03/26 10:20:18;;;;;;;7.55;4.35;;;2.40;99.90;;;;;;4860322;29;20136;-67
2023/03/26 10:22:48;;;;;;;5.13;4.60;;;2.40;99.90;;;;;;4849719;29;20077;-64
2023/03/26 10:25:33;;;;;;;6.97;4.70;;;2.40;99.90;;;;;;4843732;29;20056;-67
2023/03/26 10:28:15;;;;;;;6.63;6.03;;;2.40;99.90;;;;;;4843141;29;20064;-65
2023/03/26 10:31:11;;;;;;;5.25;4.10;;;2.50;99.90;;;;;;4859687;29;20981;-65
2023/03/26 10:34:20;;;;;;;5.40;3.97;;;2.60;99.90;;;;;;4843924;29;20125;-63
2023/03/26 10:37:15;;;;;;;4.60;3.85;;;2.60;99.90;;;;;;4824537;29;20065;-63
2023/03/26 10:40:00;;;;;;;4.05;3.60;;;2.70;99.90;;;;;;4849674;29;20594;-66
2023/03/26 10:42:39;;;;;;;4.00;3.40;;;2.70;99.90;;;;;;4843375;29;20056;-65
2023/03/26 10:45:20;;;;;;;4.50;2.80;;;2.70;99.90;;;;;;4846747;29;20072;-66
2023/03/26 10:47:54;;;;;;;4.75;3.80;;;2.80;99.90;;;;;;4859637;29;20045;-66
2023/03/26 10:50:42;;;;;;;4.45;4.05;;;2.80;99.90;;;;;;4849105;29;20050;-69
2023/03/26 10:53:30;;;;;;;4.13;3.72;;;2.80;99.90;;;;;;4846379;29;20049;-64
2023/03/26 10:56:12;;;;;;;3.78;3.45;;;2.90;99.90;;;;;;4848404;29;20141;-64
2023/03/26 10:58:40;;;;;;;4.05;3.63;;;2.90;99.90;;;;;;4844645;29;20503;-68
2023/03/26 11:01:34;;;;;;;7.25;4.13;;;3.00;99.90;;;;;;4844899;29;20480;-64
2023/03/26 11:04:38;;;;;;;5.70;5.18;;;3.00;99.90;;;;;;4850127;29;20110;-66
2023/03/26 11:07:17;;;;;;;4.75;4.22;;;2.90;99.90;;;;;;4863615;29;20081;-63
2023/03/26 11:10:05;;;;;;;6.47;4.55;;;3.00;99.90;;;;;;4843788;29;20067;-69
2023/03/26 11:12:50;;;;;;;6.45;4.65;;;3.00;99.90;;;;;;4845200;29;20037;-67
2023/03/26 11:15:34;;;;;;;5.78;4.47;;;3.00;99.90;;;;;;4841692;29;20050;-70
2023/03/26 11:18:22;;;;;;;7.28;5.13;;;3.10;99.90;;;;;;4848560;29;20148;-68
2023/03/26 11:21:17;;;;;;;4.55;3.92;;;3.00;99.90;;;;;;4859520;29;20514;-69
2023/03/26 11:24:24;;;;;;;7.07;4.65;;;3.00;99.90;;;;;;4841522;29;20050;-69
2023/03/26 11:26:57;;;;;;;5.20;4.70;;;3.00;99.90;;;;;;4846229;29;20060;-67
2023/03/26 11:29:50;;;;;;;7.57;4.93;;;3.00;99.90;;;;;;4847428;29;20447;-62
2023/03/26 11:32:24;;;;;;;4.53;4.07;;;2.90;99.90;;;;;;4844384;29;20615;-66
2023/03/26 11:35:14;;;;;;;5.30;4.35;;;2.90;99.90;;;;;;4848013;29;20106;-64
2023/03/26 11:37:45;;;;;;;5.35;4.80;;;2.90;99.90;;;;;;4843317;29;20539;-66
2023/03/26 11:40:27;;;;;;;8.05;5.22;;;2.90;99.90;;;;;;4851242;29;20116;-63
2023/03/26 11:43:07;;;;;;;6.30;5.03;;;2.90;99.90;;;;;;4843701;29;20059;-67
2023/03/26 11:45:38;;;;;;;6.25;4.60;;;2.90;99.90;;;;;;4842482;29;20048;-65
2023/03/26 11:48:15;;;;;;;6.22;5.38;;;2.80;99.90;;;;;;4848444;29;20065;-63
2023/03/26 11:50:54;;;;;;;6.03;5.20;;;2.80;99.90;;;;;;4846005;29;20499;-65
2023/03/26 11:53:26;;;;;;;5.72;5.13;;;2.80;99.90;;;;;;4841960;29;20812;-63
2023/03/26 11:56:13;;;;;;;8.93;5.45;;;2.80;99.90;;;;;;4845747;29;20224;-62
2023/03/26 11:58:52;;;;;;;6.32;5.55;;;2.70;99.90;;;;;;4845290;29;20049;-68
2023/03/26 12:01:31;;;;;;;6.43;5.38;;;2.70;99.90;;;;;;4856879;29;20052;-67
2023/03/26 12:04:05;;;;;;;5.95;5.30;;;2.70;99.90;;;;;;4841240;29;20046;-63
2023/03/26 12:06:33;;;;;;;5.97;5.35;;;2.70;99.90;;;;;;4851253;29;20045;-63
2023/03/26 12:09:00;;;;;;;6.45;5.75;;;2.80;99.90;;;;;;4847883;29;20126;-64
2023/03/26 12:11:30;;;;;;;7.85;5.20;;;2.80;99.90;;;;;;4849502;29;20128;-69
2023/03/26 12:14:03;;;;;;;7.10;5.72;;;2.70;99.90;;;;;;4844595;29;20499;-66
2023/03/26 12:16:30;;;;;;;6.25;4.70;;;2.70;99.90;;;;;;4847508;29;20166;-68
2023/03/26 12:19:05;;;;;;;5.65;5.07;;;2.70;99.90;;;;;;4837407;29;20442;-63
2023/03/26 12:21:50;;;;;;;6.13;4.75;;;2.60;99.90;;;;;;4850213;29;20057;-63
2023/03/26 12:24:29;;;;;;;9.07;5.13;;;2.70;99.90;;;;;;4850130;29;20045;-67
2023/03/26 12:27:23;;;;;;;6.15;5.32;;;2.70;99.90;;;;;;4839757;29;20052;-64
2023/03/26 12:29:58;;;;;;;8.65;5.55;;;2.60;99.90;;;;;;4842050;29;20061;-63
2023/03/26 12:32:31;;;;;;;5.65;5.13;;;2.70;99.90;;;;;;4847466;29;20045;-66
2023/03/26 12:35:28;;;;;;;5.88;5.28;;;2.60;99.90;;;;;;4838166;29;20058;-66
2023/03/26 12:38:31;;;;;;;6.72;5.60;;;2.60;99.90;;;;;;4845704;29;20041;-65
2023/03/26 12:41:10;;;;;;;7.03;4.90;;;2.60;99.90;;;;;;4844538;29;20050;-65
2023/03/26 12:44:27;;;;;;;5.85;4.63;;;2.50;99.90;;;;;;4847944;29;20041;-66
2023/03/26 12:47:31;;;;;;;7.55;4.72;;;2.50;99.90;;;;;;4848786;29;20141;-64
2023/03/26 12:50:22;;;;;;;6.15;5.05;;;2.50;99.90;;;;;;4843077;29;20046;-64
2023/03/26 12:53:36;;;;;;;4.65;4.25;;;2.50;99.90;;;;;;4846312;29;20069;-63
2023/03/26 12:56:20;;;;;;;5.30;4.80;;;2.40;99.90;;;;;;4847289;29;20098;-64
2023/03/26 12:59:04;;;;;;;5.43;4.75;;;2.40;99.90;;;;;;4845067;29;20449;-69
2023/03/26 13:02:19;;;;;;;6.47;4.40;;;2.30;99.90;;;;;;4848228;29;20049;-65
2023/03/26 13:05:20;;;;;;;6.07;5.07;;;2.30;99.90;;;;;;4829536;29;20050;-63
2023/03/26 13:07:50;;;;;;;;;;;2.30;99.90;;;;;;4839024;29;20464;-66
2023/03/26 13:10:31;;;;;;;5.63;4.80;;;2.30;99.90;;;;;;4843731;29;19920;-71
2023/03/26 13:13:15;;;;;;;7.22;4.82;;;2.30;99.90;;;;;;4835651;29;20053;-63
2023/03/26 13:15:50;;;;;;;6.80;5.18;;;2.40;99.90;;;;;;4845695;29;20058;-65
2023/03/26 13:18:26;;;;;;;5.07;4.38;;;2.30;99.90;;;;;;4840345;29;20064;-70
2023/03/26 13:21:21;;;;;;;6.15;4.72;;;2.30;99.90;;;;;;4841206;29;20136;-69
2023/03/26 13:24:12;;;;;;;6.70;4.90;;;2.30;99.90;;;;;;4832708;29;20059;-60
2023/03/26 13:26:42;;;;;;;5.07;4.57;;;2.30;99.90;;;;;;4848005;29;20357;-61
2023/03/26 13:29:18;;;;;;;5.30;4.75;;;2.30;99.90;;;;;;4842376;29;20146;-65
2023/03/26 13:32:04;;;;;;;5.13;4.63;;;2.20;99.90;;;;;;4844760;29;20550;-64
2023/03/26 13:34:48;;;;;;;5.25;4.72;;;2.20;99.90;;;;;;4844003;29;20088;-67
2023/03/26 13:37:27;;;;;;;7.22;5.18;;;2.30;99.90;;;;;;4845543;29;20049;-68
2023/03/26 13:40:24;;;;;;;7.47;4.18;;;2.30;99.90;;;;;;4846699;29;20068;-62
2023/03/26 13:43:12;;;;;;;8.38;4.95;;;2.30;99.90;;;;;;4841595;29;20153;-64
2023/03/26 13:45:55;;;;;;;11.68;4.65;;;2.30;99.90;;;;;;4841522;29;20056;-65
2023/03/26 13:48:26;;;;;;;5.10;4.00;;;2.20;99.90;;;;;;4850796;29;20057;-68
2023/03/26 13:51:08;;;;;;;6.40;5.30;;;2.20;99.90;;;;;;4847223;29;20049;-64
2023/03/26 13:54:06;;;;;;;5.15;4.65;;;2.20;99.90;;;;;;4849787;29;20102;-65
2023/03/26 13:56:40;;;;;;;4.60;4.20;;;2.20;99.90;;;;;;4847332;29;20125;-63
2023/03/26 13:59:27;;;;;;;4.50;4.10;;;2.20;99.90;;;;;;4849335;29;20136;-68
2023/03/26 14:02:29;;;;;;;5.30;3.78;;;2.20;99.90;;;;;;4848292;29;20062;-63
2023/03/26 14:05:07;;;;;;;6.38;4.13;;;2.10;99.90;;;;;;4823067;29;20050;-66